createdAt,value
2018-09-27T00:00:35.756Z,15.60
2018-09-27T00:05:28.332Z,15.59
2018-09-27T00:10:20.941Z,15.57
2018-09-27T00:15:13.491Z,15.54
2018-09-27T00:20:06.252Z,15.51
2018-09-27T00:24:58.808Z,15.47
2018-09-27T00:29:51.396Z,15.44
2018-09-27T00:34:44.014Z,15.43
2018-09-27T00:39:36.546Z,15.42
2018-09-27T00:44:29.148Z,15.43
2018-09-27T00:49:21.888Z,15.43
2018-09-27T00:54:14.547Z,15.45
2018-09-27T00:59:07.199Z,15.46
2018-09-27T01:03:59.878Z,15.47
2018-09-27T01:08:53.079Z,15.49
2018-09-27T01:13:45.653Z,15.50
2018-09-27T01:18:38.169Z,15.52
2018-09-27T01:23:30.722Z,15.54
2018-09-27T01:28:23.363Z,15.57
2018-09-27T01:33:15.949Z,15.59
2018-09-27T01:38:08.538Z,15.63
2018-09-27T01:43:01.145Z,15.64
2018-09-27T01:47:53.723Z,15.66
2018-09-27T01:52:46.483Z,15.67
2018-09-27T01:57:39.053Z,15.68
2018-09-27T02:02:31.689Z,15.68
2018-09-27T02:07:24.254Z,15.69
2018-09-27T02:12:16.835Z,15.68
2018-09-27T02:17:09.425Z,15.67
2018-09-27T02:22:02.049Z,15.65
2018-09-27T02:26:54.597Z,15.61
2018-09-27T02:31:48.170Z,15.59
2018-09-27T02:36:40.754Z,15.55
2018-09-27T02:41:33.388Z,15.52
2018-09-27T02:46:26.016Z,15.49
2018-09-27T02:51:18.608Z,15.47
2018-09-27T02:56:11.240Z,15.45
2018-09-27T03:01:03.864Z,15.46
2018-09-27T03:05:56.651Z,15.44
2018-09-27T03:10:49.295Z,15.43
2018-09-27T03:15:41.867Z,15.43
2018-09-27T03:20:34.402Z,15.42
2018-09-27T03:25:27.015Z,15.40
2018-09-27T03:30:19.566Z,15.39
2018-09-27T03:35:12.131Z,15.40
2018-09-27T03:40:04.760Z,15.41
2018-09-27T03:44:57.410Z,15.41
2018-09-27T03:49:49.987Z,15.43
2018-09-27T03:54:42.568Z,15.43
2018-09-27T03:59:35.295Z,15.44
2018-09-27T04:04:28.007Z,15.44
2018-09-27T04:09:20.575Z,15.42
2018-09-27T04:14:13.174Z,15.44
2018-09-27T04:19:05.735Z,15.43
2018-09-27T04:23:58.477Z,15.44
2018-09-27T04:28:51.180Z,15.45
2018-09-27T04:33:43.898Z,15.46
2018-09-27T04:38:36.399Z,15.47
2018-09-27T04:43:29.135Z,15.44
2018-09-27T04:48:21.689Z,15.44
2018-09-27T04:53:14.267Z,15.43
2018-09-27T04:58:06.835Z,15.44
2018-09-27T05:02:59.534Z,15.45
2018-09-27T05:07:52.145Z,15.44
2018-09-27T05:12:44.759Z,15.44
2018-09-27T05:17:37.348Z,15.44
2018-09-27T05:22:29.877Z,15.45
2018-09-27T05:27:22.601Z,15.46
2018-09-27T05:32:15.148Z,15.48
2018-09-27T05:37:07.880Z,15.49
2018-09-27T05:42:00.435Z,15.51
2018-09-27T05:46:53.019Z,15.51
2018-09-27T05:51:45.575Z,15.53
2018-09-27T05:56:38.174Z,15.55
2018-09-27T06:01:30.783Z,15.55
2018-09-27T06:06:23.476Z,15.54
2018-09-27T06:11:16.061Z,15.57
2018-09-27T06:16:08.570Z,15.58
2018-09-27T06:21:01.344Z,15.57
2018-09-27T06:25:54.105Z,15.59
2018-09-27T06:30:46.684Z,15.60
2018-09-27T06:35:39.286Z,15.60
2018-09-27T06:40:31.846Z,15.62
2018-09-27T06:45:24.420Z,15.66
2018-09-27T06:50:17.012Z,15.68
2018-09-27T06:55:09.717Z,15.70
2018-09-27T07:00:02.061Z,15.74
2018-09-27T07:04:54.587Z,15.78
2018-09-27T07:09:47.272Z,15.80
2018-09-27T07:14:39.990Z,15.84
2018-09-27T07:19:32.483Z,15.88
2018-09-27T07:24:25.122Z,15.91
2018-09-27T07:29:17.800Z,15.95
2018-09-27T07:34:10.429Z,15.98
2018-09-27T07:39:04.290Z,16.02
2018-09-27T07:43:56.955Z,16.05
2018-09-27T07:53:21.504Z,16.18
2018-09-27T07:58:14.099Z,16.26
2018-09-27T08:03:06.896Z,16.38
2018-09-27T08:07:59.443Z,16.51
2018-09-27T08:12:52.110Z,16.73
2018-09-27T08:17:44.933Z,16.92
2018-09-27T08:22:37.652Z,17.04
2018-09-27T08:27:30.616Z,17.17
2018-09-27T08:32:23.430Z,17.33
2018-09-27T08:37:16.090Z,17.55
2018-09-27T08:42:08.900Z,17.72
2018-09-27T08:47:01.626Z,17.79
2018-09-27T08:51:54.277Z,17.97
2018-09-27T08:56:46.813Z,18.10
2018-09-27T09:01:39.594Z,18.32
2018-09-27T09:06:32.206Z,18.76
2018-09-27T09:11:24.840Z,19.24
2018-09-27T09:16:17.486Z,19.64
2018-09-27T09:21:10.395Z,19.99
2018-09-27T09:26:03.065Z,20.33
2018-09-27T09:30:55.755Z,20.54
2018-09-27T09:35:48.602Z,20.80
2018-09-27T09:40:41.259Z,21.10
2018-09-27T09:45:33.952Z,21.36
2018-09-27T09:50:26.634Z,21.64
2018-09-27T09:55:19.314Z,21.96
2018-09-27T10:00:12.053Z,22.18
2018-09-27T10:05:04.751Z,22.42
2018-09-27T10:09:57.608Z,22.64
2018-09-27T10:14:50.256Z,22.82
2018-09-27T10:19:42.874Z,22.79
2018-09-27T10:24:35.520Z,22.94
2018-09-27T10:29:28.215Z,22.80
2018-09-27T10:34:20.913Z,22.70
2018-09-27T10:39:13.519Z,23.16
2018-09-27T10:44:06.279Z,23.30
2018-09-27T10:48:58.938Z,23.09
2018-09-27T10:53:51.551Z,23.05
2018-09-27T10:58:44.199Z,23.18
2018-09-27T11:03:36.971Z,23.50
2018-09-27T11:08:29.639Z,23.90
2018-09-27T11:13:22.324Z,24.11
2018-09-27T11:18:14.950Z,24.13
2018-09-27T11:23:07.603Z,24.35
2018-09-27T11:28:00.198Z,24.65
2018-09-27T11:32:52.896Z,24.86
2018-09-27T11:37:45.489Z,24.95
2018-09-27T11:42:38.716Z,25.04
2018-09-27T11:47:31.395Z,25.09
2018-09-27T11:52:24.059Z,25.23
2018-09-27T11:57:16.647Z,25.45
2018-09-27T12:02:09.372Z,25.55
2018-09-27T12:12:08.689Z,25.85
2018-09-27T12:17:01.450Z,25.88
2018-09-27T12:21:54.123Z,25.93
2018-09-27T12:26:46.880Z,25.89
2018-09-27T12:31:39.571Z,26.04
2018-09-27T12:36:32.185Z,26.27
2018-09-27T12:41:24.830Z,26.18
2018-09-27T12:46:17.407Z,26.00
2018-09-27T12:51:10.172Z,26.05
2018-09-27T12:56:02.793Z,25.78
2018-09-27T13:00:55.390Z,25.90
2018-09-27T13:05:48.130Z,25.81
2018-09-27T13:10:40.911Z,25.52
2018-09-27T13:15:33.552Z,25.47
2018-09-27T13:20:26.309Z,25.59
2018-09-27T13:25:18.947Z,25.78
2018-09-27T13:30:11.764Z,25.62
2018-09-27T13:35:04.507Z,25.70
2018-09-27T13:39:57.281Z,25.77
2018-09-27T13:44:49.952Z,25.81
2018-09-27T13:49:42.664Z,25.77
2018-09-27T13:54:35.250Z,25.72
2018-09-27T13:59:27.907Z,25.79
2018-09-27T14:04:20.534Z,25.85
2018-09-27T14:09:13.272Z,25.85
2018-09-27T14:14:06.468Z,25.83
2018-09-27T14:18:59.103Z,25.71
2018-09-27T14:23:51.708Z,25.81
2018-09-27T14:28:44.311Z,25.66
2018-09-27T14:33:37.016Z,25.51
2018-09-27T14:38:29.609Z,25.61
2018-09-27T14:43:22.267Z,25.57
2018-09-27T14:48:15.515Z,25.48
2018-09-27T14:53:08.286Z,25.43
2018-09-27T14:58:00.967Z,25.36
2018-09-27T15:02:53.567Z,25.25
2018-09-27T15:07:46.199Z,25.15
2018-09-27T15:12:38.886Z,25.02
2018-09-27T15:17:31.485Z,24.95
2018-09-27T15:22:24.169Z,24.89
2018-09-27T15:27:16.791Z,25.00
2018-09-27T15:32:09.459Z,25.05
2018-09-27T15:37:02.095Z,24.99
2018-09-27T15:41:54.728Z,24.90
2018-09-27T15:46:47.420Z,24.80
2018-09-27T15:51:40.025Z,24.65
2018-09-27T15:56:32.668Z,24.57
2018-09-27T16:01:25.415Z,24.43
2018-09-27T16:06:18.053Z,24.25
2018-09-27T16:11:10.686Z,24.11
2018-09-27T16:16:03.298Z,23.97
2018-09-27T16:20:55.920Z,23.81
2018-09-27T16:25:48.823Z,23.70
2018-09-27T16:30:41.468Z,23.64
2018-09-27T16:35:34.206Z,23.56
2018-09-27T16:40:26.843Z,23.44
2018-09-27T16:45:19.464Z,23.35
2018-09-27T16:50:12.312Z,23.24
2018-09-27T16:55:05.095Z,23.17
2018-09-27T16:59:57.760Z,23.11
2018-09-27T17:04:50.453Z,23.02
2018-09-27T17:09:43.118Z,22.92
2018-09-27T17:14:35.698Z,22.83
2018-09-27T17:19:28.431Z,22.75
2018-09-27T17:24:21.278Z,22.68
2018-09-27T17:29:13.915Z,22.61
2018-09-27T17:34:07.110Z,22.49
2018-09-27T17:38:59.644Z,22.42
2018-09-27T17:43:52.288Z,22.36
2018-09-27T17:48:44.921Z,22.27
2018-09-27T17:53:37.887Z,22.17
2018-09-27T17:58:30.562Z,22.13
2018-09-27T18:03:23.271Z,22.04
2018-09-27T18:08:15.956Z,22.00
2018-09-27T18:13:08.650Z,21.95
2018-09-27T18:18:01.375Z,21.90
2018-09-27T18:22:53.983Z,21.83
2018-09-27T18:27:46.619Z,21.73
2018-09-27T18:32:39.253Z,21.63
2018-09-27T18:37:32.010Z,21.59
2018-09-27T18:42:24.663Z,21.54
2018-09-27T18:47:17.305Z,21.45
2018-09-27T18:52:09.976Z,21.31
2018-09-27T18:57:02.602Z,21.20
2018-09-27T19:01:55.190Z,21.08
2018-09-27T19:06:47.762Z,21.00
2018-09-27T19:11:40.517Z,20.92
2018-09-27T19:16:33.125Z,20.87
2018-09-27T19:21:25.828Z,20.81
2018-09-27T19:26:18.523Z,20.73
2018-09-27T19:31:11.145Z,20.68
2018-09-27T19:36:03.785Z,20.65
2018-09-27T19:40:56.353Z,20.58
2018-09-27T19:45:48.925Z,20.49
2018-09-27T19:50:41.586Z,20.42
2018-09-27T19:55:34.171Z,20.30
2018-09-27T20:00:26.709Z,20.25
2018-09-27T20:05:19.460Z,20.17
2018-09-27T20:10:12.224Z,20.09
2018-09-27T20:15:04.877Z,19.99
2018-09-27T20:19:57.482Z,19.92
2018-09-27T20:24:50.094Z,19.86
2018-09-27T20:29:42.785Z,19.78
2018-09-27T20:34:35.520Z,19.73
2018-09-27T20:39:31.289Z,19.67
2018-09-27T20:44:24.682Z,19.63
2018-09-27T20:49:17.925Z,19.58
2018-09-27T20:54:10.643Z,19.52
2018-09-27T20:59:03.306Z,19.49
2018-09-27T21:03:55.932Z,19.44
2018-09-27T21:08:48.607Z,19.44
2018-09-27T21:13:41.364Z,19.44
2018-09-27T21:18:34.029Z,19.49
2018-09-27T21:23:27.066Z,19.49
2018-09-27T21:28:19.645Z,19.45
2018-09-27T21:33:12.351Z,19.36
2018-09-27T21:38:04.931Z,19.29
2018-09-27T21:42:57.627Z,19.19
2018-09-27T21:47:50.275Z,19.08
2018-09-27T21:52:43.005Z,19.07
2018-09-27T21:57:35.749Z,18.98
2018-09-27T22:02:28.614Z,18.81
2018-09-27T22:07:21.265Z,18.66
2018-09-27T22:12:13.944Z,18.52
2018-09-27T22:17:06.665Z,18.40
2018-09-27T22:21:59.319Z,18.30
2018-09-27T22:26:51.970Z,18.19
2018-09-27T22:31:44.544Z,18.12
2018-09-27T22:36:37.137Z,18.07
2018-09-27T22:41:29.731Z,18.02
2018-09-27T22:46:22.397Z,17.97
2018-09-27T22:51:15.127Z,17.85
2018-09-27T22:56:07.773Z,17.75
2018-09-27T23:01:00.439Z,17.64
2018-09-27T23:05:53.151Z,17.56
2018-09-27T23:10:45.809Z,17.47
2018-09-27T23:15:38.575Z,17.51
2018-09-27T23:20:31.311Z,17.47
2018-09-27T23:25:24.008Z,17.36
2018-09-27T23:30:16.636Z,17.33
2018-09-27T23:35:09.234Z,17.38
2018-09-27T23:40:01.952Z,17.37
2018-09-27T23:44:54.627Z,17.36
2018-09-27T23:49:47.484Z,17.32
2018-09-27T23:54:40.116Z,17.21
2018-09-27T23:59:32.684Z,17.09
